Time;durP1;ratioP1;P1;durP2;ratioP2;P2;SDS_P1;SDS_P2;PMS_P1;PMS_P2;Temp;Humidity;BMP_temperature;BMP_pressure;BME280_temperature;BME280_humidity;BME280_pressure;Samples;Min_cycle;Max_cycle;Signal;HPM_P1;HPM_P2
2023/02/22 00:00:55;;;;;;;;;;;256.80;2252.80;;;;;;5068657;28;19904;-75
2023/02/22 00:03:26;;;;;;;;;;;256.80;2252.80;;;;;;5056891;28;20391;-76
2023/02/22 00:05:52;;;;;;;;;;;256.80;2252.80;;;;;;5033058;28;19952;-75
2023/02/22 00:08:19;;;;;;;;;;;256.70;2252.80;;;;;;5042776;28;19951;-75
2023/02/22 00:10:44;;;;;;;;;;;256.60;2252.80;;;;;;5050322;28;19909;-75
2023/02/22 00:13:12;;;;;;;;;;;256.50;2252.80;;;;;;5040839;28;19909;-75
2023/02/22 00:15:40;;;;;;;;;;;256.60;2252.80;;;;;;5029991;28;20381;-75
2023/02/22 00:18:06;;;;;;;;;;;256.50;2252.80;;;;;;5044300;28;19957;-75
2023/02/22 00:20:31;;;;;;;;;;;256.50;2252.80;;;;;;5042233;28;20053;-75
2023/02/22 00:23:00;;;;;;;;;;;256.50;2252.80;;;;;;5044132;28;20003;-75
2023/02/22 00:25:25;;;;;;;;;;;256.40;2252.80;;;;;;5053976;28;20266;-75
2023/02/22 00:27:51;;;;;;;;;;;256.50;2252.80;;;;;;5056865;28;19912;-75
2023/02/22 00:30:22;;;;;;;;;;;256.50;2252.80;;;;;;5053292;28;19904;-75
2023/02/22 00:32:48;;;;;;;;;;;256.40;2252.80;;;;;;5041900;28;19905;-76
2023/02/22 00:35:15;;;;;;;;;;;256.50;2252.80;;;;;;5052323;28;19936;-75
2023/02/22 00:37:41;;;;;;;;;;;256.50;2252.80;;;;;;5039853;28;19909;-75
2023/02/22 00:40:08;;;;;;;;;;;256.50;2252.80;;;;;;5058254;28;19986;-75
2023/02/22 00:42:33;;;;;;;;;;;256.40;2252.80;;;;;;5028508;28;19908;-75
2023/02/22 00:44:59;;;;;;;;;;;256.20;2252.80;;;;;;5033040;28;20327;-75
2023/02/22 00:47:26;;;;;;;;;;;256.10;2252.80;;;;;;5029922;28;19905;-75
2023/02/22 00:49:51;;;;;;;;;;;256.10;2252.80;;;;;;5045997;28;19984;-76
2023/02/22 00:52:17;;;;;;;;;;;256.10;2252.80;;;;;;5054502;28;19948;-75
2023/02/22 00:54:43;;;;;;;;;;;256.10;2252.80;;;;;;5055738;28;19978;-76
2023/02/22 00:57:08;;;;;;;;;;;231.30;2252.80;;;;;;5053929;28;19912;-75
2023/02/22 00:59:34;;;;;;;;;;;231.30;2252.80;;;;;;5057571;28;19916;-75
2023/02/22 01:01:59;;;;;;;;;;;231.20;2252.80;;;;;;5050016;28;19905;-75
2023/02/22 01:04:25;;;;;;;;;;;231.20;2252.80;;;;;;5058248;28;19912;-75
2023/02/22 01:06:50;;;;;;;;;;;256.00;2252.80;;;;;;5051482;28;19948;-75
2023/02/22 01:09:16;;;;;;;;;;;256.10;2252.80;;;;;;5052518;28;19914;-76
2023/02/22 01:11:41;;;;;;;;;;;256.10;2252.80;;;;;;5056379;28;19908;-75
2023/02/22 01:14:08;;;;;;;;;;;256.20;2252.80;;;;;;5049737;28;20006;-75
2023/02/22 01:16:34;;;;;;;;;;;256.20;2252.80;;;;;;5050843;28;20051;-75
2023/02/22 01:19:00;;;;;;;;;;;256.00;2252.80;;;;;;5050823;28;20049;-75
2023/02/22 01:21:26;;;;;;;;;;;231.30;2252.80;;;;;;5053865;28;20384;-75
2023/02/22 01:23:51;;;;;;;;;;;231.30;2252.80;;;;;;5039460;28;19905;-75
2023/02/22 01:26:17;;;;;;;;;;;231.30;2252.80;;;;;;5047848;28;19944;-75
2023/02/22 01:28:42;;;;;;;;;;;231.30;2252.80;;;;;;5058448;28;19909;-76
2023/02/22 01:31:09;;;;;;;;;;;231.30;2252.80;;;;;;5054047;28;19905;-75
2023/02/22 01:33:34;;;;;;;;;;;231.20;2252.80;;;;;;5055597;28;19905;-75
2023/02/22 01:36:00;;;;;;;;;;;231.20;2252.80;;;;;;5055363;28;19970;-75
2023/02/22 01:38:25;;;;;;;;;;;231.10;2252.80;;;;;;5053046;28;19905;-76
2023/02/22 01:40:51;;;;;;;;;;;231.10;2252.80;;;;;;5052479;28;19917;-75
2023/02/22 01:43:28;;;;;;;;;;;231.10;2252.80;;;;;;5033708;28;19962;-76
2023/02/22 01:45:53;;;;;;;;;;;231.10;2252.80;;;;;;5049425;28;19933;-75
2023/02/22 01:48:19;;;;;;;;;;;231.10;2252.80;;;;;;5044538;28;19944;-75
2023/02/22 01:50:53;;;;;;;;;;;231.00;2252.80;;;;;;5056120;28;19904;-75
2023/02/22 01:53:21;;;;;;;;;;;231.00;2252.80;;;;;;5051336;28;19966;-75
2023/02/22 01:55:46;;;;;;;;;;;230.90;2252.80;;;;;;5043440;28;20569;-76
2023/02/22 01:58:13;;;;;;;;;;;230.90;2252.80;;;;;;5058851;28;20358;-75
2023/02/22 02:00:39;;;;;;;;;;;230.90;2252.80;;;;;;5064760;28;19908;-75
2023/02/22 02:03:07;;;;;;;;;;;231.00;2252.80;;;;;;5057920;28;19958;-75
2023/02/22 02:05:33;;;;;;;;;;;231.00;2252.80;;;;;;5049110;28;19909;-75
2023/02/22 02:08:02;;;;;;;;;;;231.10;2252.80;;;;;;5071377;28;19911;-75
2023/02/22 02:10:28;;;;;;;;;;;231.20;2252.80;;;;;;5050221;28;20385;-76
2023/02/22 02:12:54;;;;;;;;;;;231.20;2252.80;;;;;;5059309;28;19952;-76
2023/02/22 02:15:27;;;;;;;;;;;231.30;2252.80;;;;;;5041081;28;19912;-76
2023/02/22 02:17:55;;;;;;;;;;;231.20;2252.80;;;;;;5047251;28;19916;-75
2023/02/22 02:20:27;;;;;;;;;;;231.20;2252.80;;;;;;5034863;28;19911;-75
2023/02/22 02:23:10;;;;;;;;;;;231.20;2252.80;;;;;;5054097;28;19905;-75
2023/02/22 02:25:45;;;;;;;;;;;231.20;2252.80;;;;;;5046120;28;19959;-76
2023/02/22 02:28:29;;;;;;;;;;;231.10;2252.80;;;;;;5039541;28;19908;-75
2023/02/22 02:30:55;;;;;;;;;;;231.10;2252.80;;;;;;5042998;28;20000;-77
2023/02/22 02:33:28;;;;;;;;;;;231.10;2252.80;;;;;;5033693;28;19995;-75
2023/02/22 02:35:57;;;;;;;;;;;231.00;2252.80;;;;;;5039112;28;19955;-73
2023/02/22 02:38:26;;;;;;;;;;;231.00;2252.80;;;;;;5053211;28;19951;-73
2023/02/22 02:41:00;;;;;;;;;;;231.10;2252.80;;;;;;5052955;28;20374;-73
2023/02/22 02:43:32;;;;;;;;;;;231.10;2252.80;;;;;;5035302;28;19908;-73
2023/02/22 02:46:02;;;;;;;;;;;231.10;2252.80;;;;;;5040758;28;19912;-75
2023/02/22 02:48:30;;;;;;;;;;;231.20;2252.80;;;;;;5035271;28;19909;-74
2023/02/22 02:50:57;;;;;;;;;;;231.10;2252.80;;;;;;5035254;28;19994;-73
2023/02/22 02:53:26;;;;;;;;;;;231.10;2252.80;;;;;;5053058;28;19909;-73
2023/02/22 02:55:51;;;;;;;;;;;230.90;2252.80;;;;;;5052995;28;19913;-73
2023/02/22 02:58:21;;;;;;;;;;;230.90;2252.80;;;;;;5035114;28;20316;-73
2023/02/22 03:00:48;;;;;;;;;;;230.90;2252.80;;;;;;5053107;28;19979;-73
2023/02/22 03:03:17;;;;;;;;;;;230.70;2252.80;;;;;;5035062;28;20378;-74
2023/02/22 03:05:45;;;;;;;;;;;230.60;2252.80;;;;;;5047871;28;19904;-73
2023/02/22 03:08:11;;;;;;;;;;;230.60;2252.80;;;;;;5052828;28;20388;-72
2023/02/22 03:10:45;;;;;;;;;;;230.70;2252.80;;;;;;5034868;28;19967;-73
2023/02/22 03:13:17;;;;;;;;;;;230.80;2252.80;;;;;;5052995;28;19905;-73
2023/02/22 03:16:01;;;;;;;;;;;230.90;2252.80;;;;;;5050232;28;20365;-74
2023/02/22 03:18:29;;;;;;;;;;;231.00;2252.80;;;;;;5050907;28;19996;-73
2023/02/22 03:20:59;;;;;;;;;;;231.10;2252.80;;;;;;5052884;28;19962;-73
2023/02/22 03:23:41;;;;;;;;;;;231.10;2252.80;;;;;;5050469;28;19905;-74
2023/02/22 03:26:10;;;;;;;;;;;231.10;2252.80;;;;;;5050777;28;19966;-73
2023/02/22 03:28:39;;;;;;;;;;;231.10;2252.80;;;;;;5052712;28;19912;-73
2023/02/22 03:31:14;;;;;;;;;;;231.00;2252.80;;;;;;5030211;28;19967;-73
2023/02/22 03:33:42;;;;;;;;;;;230.90;2252.80;;;;;;5055848;28;19999;-73
2023/02/22 03:36:08;;;;;;;;;;;230.90;2252.80;;;;;;5038563;28;19924;-73
2023/02/22 03:38:36;;;;;;;;;;;230.90;2252.80;;;;;;5056368;28;19908;-73
2023/02/22 03:41:03;;;;;;;;;;;230.80;2252.80;;;;;;5056016;28;19920;-73
2023/02/22 03:43:35;;;;;;;;;;;230.90;2252.80;;;;;;5056318;28;20015;-73
2023/02/22 03:46:02;;;;;;;;;;;230.90;2252.80;;;;;;5038419;28;19908;-73
2023/02/22 03:48:34;;;;;;;;;;;231.00;2252.80;;;;;;5056328;28;19958;-73
2023/02/22 03:51:03;;;;;;;;;;;231.10;2252.80;;;;;;5038300;28;20412;-73
2023/02/22 03:53:29;;;;;;;;;;;231.20;2252.80;;;;;;5055998;28;19905;-73
2023/02/22 03:55:57;;;;;;;;;;;231.20;2252.80;;;;;;5055990;28;19919;-73
2023/02/22 03:58:23;;;;;;;;;;;231.30;2252.80;;;;;;5056029;28;19905;-73
2023/02/22 04:00:51;;;;;;;;;;;256.00;2252.80;;;;;;5056106;28;19991;-72
2023/02/22 04:03:18;;;;;;;;;;;256.10;2252.80;;;;;;5055883;28;19911;-74
2023/02/22 04:05:44;;;;;;;;;;;256.10;2252.80;;;;;;5038062;28;20313;-73
2023/02/22 04:08:09;;;;;;;;;;;256.10;2252.80;;;;;;5055837;28;19952;-73
2023/02/22 04:10:36;;;;;;;;;;;256.10;2252.80;;;;;;5055586;28;20258;-73
2023/02/22 04:13:02;;;;;;;;;;;256.20;2252.80;;;;;;5055756;28;19971;-73
2023/02/22 04:15:28;;;;;;;;;;;256.20;2252.80;;;;;;5037742;28;20361;-73
2023/02/22 04:17:53;;;;;;;;;;;256.20;2252.80;;;;;;5055700;28;20274;-73
2023/02/22 04:20:24;;;;;;;;;;;256.20;2252.80;;;;;;5037830;28;19927;-74
2023/02/22 04:22:52;;;;;;;;;;;256.20;2252.80;;;;;;5053189;28;19958;-73
2023/02/22 04:25:18;;;;;;;;;;;256.20;2252.80;;;;;;5055524;28;19905;-73
2023/02/22 04:27:43;;;;;;;;;;;256.20;2252.80;;;;;;5055455;28;19911;-73
2023/02/22 04:30:09;;;;;;;;;;;256.20;2252.80;;;;;;5037634;28;19905;-73
2023/02/22 04:32:35;;;;;;;;;;;256.20;2252.80;;;;;;5037633;28;19904;-72
2023/02/22 04:35:01;;;;;;;;;;;256.20;2252.80;;;;;;5037453;28;19917;-73
2023/02/22 04:37:26;;;;;;;;;;;256.20;2252.80;;;;;;5055221;28;19912;-73
2023/02/22 04:39:52;;;;;;;;;;;256.20;2252.80;;;;;;5037153;28;19912;-74
2023/02/22 04:42:17;;;;;;;;;;;256.20;2252.80;;;;;;5055105;28;19927;-73
2023/02/22 04:44:43;;;;;;;;;;;256.10;2252.80;;;;;;5036271;28;19908;-73
2023/02/22 04:47:08;;;;;;;;;;;256.10;2252.80;;;;;;5037239;28;19905;-73
2023/02/22 04:49:34;;;;;;;;;;;256.10;2252.80;;;;;;5037238;28;19905;-73
2023/02/22 04:51:59;;;;;;;;;;;256.10;2252.80;;;;;;5037186;28;20350;-73
2023/02/22 04:54:25;;;;;;;;;;;256.10;2252.80;;;;;;5054857;28;20375;-73
2023/02/22 04:56:51;;;;;;;;;;;256.00;2252.80;;;;;;5037060;28;20362;-73
2023/02/22 04:59:18;;;;;;;;;;;231.30;2252.80;;;;;;5054984;28;19951;-73
2023/02/22 05:01:44;;;;;;;;;;;256.00;2252.80;;;;;;5054694;28;20003;-74
2023/02/22 05:04:09;;;;;;;;;;;231.30;2252.80;;;;;;5054602;28;20326;-73
2023/02/22 05:06:35;;;;;;;;;;;231.20;2252.80;;;;;;5054483;28;19905;-74
2023/02/22 05:09:01;;;;;;;;;;;231.20;2252.80;;;;;;5036417;28;20017;-73
2023/02/22 05:11:26;;;;;;;;;;;231.10;2252.80;;;;;;5036371;28;19927;-73
2023/02/22 05:13:52;;;;;;;;;;;231.10;2252.80;;;;;;5036413;28;19904;-73
2023/02/22 05:16:18;;;;;;;;;;;231.10;2252.80;;;;;;5054650;28;19944;-76
2023/02/22 05:18:43;;;;;;;;;;;231.00;2252.80;;;;;;5036558;28;19917;-73
2023/02/22 05:21:09;;;;;;;;;;;231.10;2252.80;;;;;;5036415;28;20354;-73
2023/02/22 05:23:35;;;;;;;;;;;231.10;2252.80;;;;;;5054123;28;20346;-73
2023/02/22 05:26:00;;;;;;;;;;;231.10;2252.80;;;;;;5054146;28;19995;-73
2023/02/22 05:28:26;;;;;;;;;;;231.10;2252.80;;;;;;5054039;28;19904;-74
2023/02/22 05:30:52;;;;;;;;;;;231.10;2252.80;;;;;;5054036;28;19909;-73
2023/02/22 05:33:18;;;;;;;;;;;231.00;2252.80;;;;;;5054020;28;19905;-76
2023/02/22 05:35:43;;;;;;;;;;;231.00;2252.80;;;;;;5053876;28;19916;-73
2023/02/22 05:38:11;;;;;;;;;;;231.00;2252.80;;;;;;5035996;28;20125;-74
2023/02/22 05:40:39;;;;;;;;;;;231.00;2252.80;;;;;;5035609;28;19928;-73
2023/02/22 05:43:05;;;;;;;;;;;231.00;2252.80;;;;;;5053722;28;20017;-73
2023/02/22 05:45:30;;;;;;;;;;;230.90;2252.80;;;;;;5035778;28;19911;-74
2023/02/22 05:47:56;;;;;;;;;;;231.00;2252.80;;;;;;5053723;28;19905;-74
2023/02/22 05:50:23;;;;;;;;;;;230.90;2252.80;;;;;;5053765;28;20364;-76
2023/02/22 05:52:48;;;;;;;;;;;231.00;2252.80;;;;;;5053610;28;19991;-76
2023/02/22 05:55:16;;;;;;;;;;;230.90;2252.80;;;;;;5035379;28;20003;-75
2023/02/22 05:57:41;;;;;;;;;;;230.90;2252.80;;;;;;5035182;28;20365;-73
2023/02/22 06:00:08;;;;;;;;;;;230.90;2252.80;;;;;;5053521;28;19939;-73
2023/02/22 06:02:33;;;;;;;;;;;231.00;2252.80;;;;;;5053350;28;19909;-75
2023/02/22 06:04:59;;;;;;;;;;;231.10;2252.80;;;;;;5053432;28;20298;-77
2023/02/22 06:07:26;;;;;;;;;;;231.00;2252.80;;;;;;5053396;28;19905;-73
2023/02/22 06:09:52;;;;;;;;;;;230.90;2252.80;;;;;;5053048;28;20012;-74
2023/02/22 06:12:17;;;;;;;;;;;231.10;2252.80;;;;;;5035468;28;19904;-73
2023/02/22 06:14:45;;;;;;;;;;;231.20;2252.80;;;;;;5053139;28;19917;-73
2023/02/22 06:17:11;;;;;;;;;;;231.20;2252.80;;;;;;5053225;28;19905;-76
2023/02/22 06:19:37;;;;;;;;;;;231.30;2252.80;;;;;;5051030;28;19911;-73
2023/02/22 06:22:04;;;;;;;;;;;231.30;2252.80;;;;;;5054170;28;19934;-73
2023/02/22 06:24:29;;;;;;;;;;;231.30;2252.80;;;;;;5058039;28;20046;-73
2023/02/22 06:26:55;;;;;;;;;;;256.00;2252.80;;;;;;5053778;28;19999;-73
2023/02/22 06:29:22;;;;;;;;;;;231.20;2252.80;;;;;;5050338;28;20027;-73
2023/02/22 06:31:48;;;;;;;;;;;231.20;2252.80;;;;;;5068312;28;20272;-74
2023/02/22 06:34:13;;;;;;;;;;;231.10;2252.80;;;;;;5050145;28;19919;-72
2023/02/22 06:36:39;;;;;;;;;;;231.10;2252.80;;;;;;5068759;28;20346;-74
2023/02/22 06:39:04;;;;;;;;;;;231.10;2252.80;;;;;;5041014;28;20384;-72
2023/02/22 06:41:30;;;;;;;;;;;231.20;2252.80;;;;;;5061777;28;19916;-73
2023/02/22 06:43:55;;;;;;;;;;;231.30;2252.80;;;;;;5061690;28;19908;-74
2023/02/22 06:46:21;;;;;;;;;;;256.10;2252.80;;;;;;5065564;28;19992;-73
2023/02/22 06:48:46;;;;;;;;;;;256.10;2252.80;;;;;;5049752;28;20023;-74
2023/02/22 06:51:12;;;;;;;;;;;256.10;2252.80;;;;;;5061318;28;19905;-74
2023/02/22 06:53:38;;;;;;;;;;;256.20;2252.80;;;;;;5045654;28;19951;-74
2023/02/22 06:56:03;;;;;;;;;;;256.30;2252.80;;;;;;5034328;28;19967;-74
2023/02/22 06:58:29;;;;;;;;;;;256.30;2252.80;;;;;;5038867;28;20018;-74
2023/02/22 07:00:54;;;;;;;;;;;256.40;2252.80;;;;;;5050595;28;20363;-74
2023/02/22 07:03:20;;;;;;;;;;;256.30;2252.80;;;;;;5051948;28;19999;-74
2023/02/22 07:05:46;;;;;;;;;;;256.30;2252.80;;;;;;5054090;28;19912;-74
2023/02/22 07:08:11;;;;;;;;;;;256.30;2252.80;;;;;;5048118;28;20346;-73
2023/02/22 07:10:37;;;;;;;;;;;256.40;2252.80;;;;;;5049191;28;19915;-72
2023/02/22 07:13:04;;;;;;;;;;;256.60;2252.80;;;;;;5056536;28;19913;-72
2023/02/22 07:15:31;;;;;;;;;;;256.60;2252.80;;;;;;5062057;28;19928;-72
2023/02/22 07:17:57;;;;;;;;;;;256.70;2252.80;;;;;;5067492;28;20003;-72
2023/02/22 07:20:23;;;;;;;;;;;256.80;2252.80;;;;;;5066021;28;19939;-73
2023/02/22 07:22:49;;;;;;;;;;;256.80;2252.80;;;;;;5026122;28;20267;-74
2023/02/22 07:25:14;;;;;;;;;;;256.80;2252.80;;;;;;5047871;28;19911;-75
2023/02/22 07:27:41;;;;;;;;;;;281.60;2278.40;;;;;;5055311;28;20281;-77
2023/02/22 07:30:07;;;;;;;;;;;281.60;2278.40;;;;;;5049058;28;19966;-74
2023/02/22 07:32:33;;;;;;;;;;;281.70;2278.40;;;;;;5046104;28;20010;-75
2023/02/22 07:35:00;;;;;;;;;;;281.60;2278.40;;;;;;5064171;28;20389;-75
2023/02/22 07:37:26;;;;;;;;;;;281.60;2278.40;;;;;;5042464;28;20263;-74
2023/02/22 07:39:52;;;;;;;;;;;281.70;2278.40;;;;;;5040175;28;19915;-75
2023/02/22 07:42:17;;;;;;;;;;;281.60;2278.40;;;;;;5079768;28;19939;-74
2023/02/22 07:44:43;;;;;;;;;;;281.70;2278.40;;;;;;5054118;28;20415;-73
2023/02/22 07:47:11;;;;;;;;;;;281.80;2278.40;;;;;;5053135;28;19909;-74
2023/02/22 07:49:37;;;;;;;;;;;281.90;2278.40;;;;;;5051546;28;19905;-73
2023/02/22 07:52:02;;;;;;;;;;;282.00;2278.40;;;;;;5036025;28;19999;-76
2023/02/22 07:54:28;;;;;;;;;;;282.00;2278.40;;;;;;5033961;28;20007;-73
2023/02/22 07:56:53;;;;;;;;;;;282.10;2278.40;;;;;;5057756;28;19909;-73
2023/02/22 07:59:20;;;;;;;;;;;281.90;2278.40;;;;;;5046482;28;19909;-73
2023/02/22 08:01:48;;;;;;;;;;;281.80;2278.40;;;;;;5044981;28;20028;-75
2023/02/22 08:04:14;;;;;;;;;;;282.00;2278.40;;;;;;5024379;28;19909;-75
2023/02/22 08:06:39;;;;;;;;;;;282.10;2278.40;;;;;;5041982;28;19913;-74
2023/02/22 08:09:05;;;;;;;;;;;282.10;2278.40;;;;;;5048592;28;20279;-75
2023/02/22 08:11:30;;;;;;;;;;;282.10;2278.40;;;;;;5063751;28;19913;-76
2023/02/22 08:13:56;;;;;;;;;;;282.10;2278.40;;;;;;5035621;28;19904;-76
2023/02/22 08:16:21;;;;;;;;;;;282.10;2278.40;;;;;;5027909;28;19916;-75
2023/02/22 08:18:47;;;;;;;;;;;282.30;2278.40;;;;;;5034903;28;19912;-76
2023/02/22 08:21:13;;;;;;;;;;;282.50;2278.40;;;;;;5028724;28;20015;-75
2023/02/22 08:23:38;;;;;;;;;;;282.50;2278.40;;;;;;5029941;28;19912;-76
2023/02/22 08:26:08;;;;;;;;;;;307.20;2304.00;;;;;;5057778;28;19927;-78
2023/02/22 08:28:33;;;;;;;;;;;307.30;2304.00;;;;;;5049168;28;19954;-78
2023/02/22 08:30:59;;;;;;;;;;;307.50;2304.00;;;;;;5035620;28;19905;-77
2023/02/22 08:33:26;;;;;;;;;;;307.60;2304.00;;;;;;5035985;28;19908;-77
2023/02/22 08:35:51;;;;;;;;;;;307.70;2304.00;;;;;;5066787;28;19912;-77
2023/02/22 08:38:26;;;;;;;;;;;307.70;2304.00;;;;;;5047734;28;19905;-76
2023/02/22 08:40:52;;;;;;;;;;;307.70;2304.00;;;;;;5041161;28;19917;-77
2023/02/22 08:43:18;;;;;;;;;;;307.80;2304.00;;;;;;5031580;28;19908;-78
2023/02/22 08:45:44;;;;;;;;;;;307.90;2304.00;;;;;;5056769;28;19977;-80
2023/02/22 08:48:10;;;;;;;;;;;307.90;2304.00;;;;;;5040903;28;20405;-80
2023/02/22 08:50:36;;;;;;;;;;;308.00;2304.00;;;;;;5030743;28;19905;-83
2023/02/22 08:53:03;;;;;;;;;;;308.10;2304.00;;;;;;5042738;28;19904;-78
2023/02/22 08:55:31;;;;;;;;;;;308.10;2304.00;;;;;;5038578;28;19913;-86
2023/02/22 08:57:56;;;;;;;;;;;308.10;2304.00;;;;;;5052537;28;19911;-93
2023/02/22 09:00:25;;;;;;;;;;;332.80;2329.60;;;;;;5028161;28;19904;-87
2023/02/22 09:02:51;;;;;;;;;;;332.80;2329.60;;;;;;5029544;28;19904;-82
2023/02/22 09:05:17;;;;;;;;;;;332.90;2329.60;;;;;;5032769;28;19955;-85
2023/02/22 09:07:43;;;;;;;;;;;332.90;2329.60;;;;;;5038203;28;19904;-83
2023/02/22 09:10:14;;;;;;;;;;;332.90;2329.60;;;;;;5044638;28;19920;-82
2023/02/22 09:12:40;;;;;;;;;;;333.00;2329.60;;;;;;5037812;28;19904;-89
2023/02/22 09:15:06;;;;;;;;;;;333.10;2329.60;;;;;;5032743;28;19919;-82
2023/02/22 09:17:31;;;;;;;;;;;333.10;2329.60;;;;;;5038025;28;19915;-81
2023/02/22 09:19:57;;;;;;;;;;;333.20;2329.60;;;;;;5033713;28;19905;-83
2023/02/22 09:22:22;;;;;;;;;;;333.40;2329.60;;;;;;5042989;28;19912;-82
2023/02/22 09:24:48;;;;;;;;;;;333.50;2329.60;;;;;;5035556;28;20042;-87
2023/02/22 09:27:15;;;;;;;;;;;333.60;2329.60;;;;;;5043596;28;20022;-77
2023/02/22 09:29:41;;;;;;;;;;;358.40;2329.60;;;;;;5050353;28;19905;-83
2023/02/22 09:32:06;;;;;;;;;;;358.50;2329.60;;;;;;5049371;28;19971;-85
2023/02/22 09:34:34;;;;;;;;;;;358.70;2329.60;;;;;;5035108;28;19956;-80
2023/02/22 09:36:59;;;;;;;;;;;358.80;2329.60;;;;;;5036992;28;19905;-83
2023/02/22 09:39:25;;;;;;;;;;;359.00;2329.60;;;;;;5035936;28;19923;-81
2023/02/22 09:41:51;;;;;;;;;;;359.20;2329.60;;;;;;5029266;28;19923;-82
2023/02/22 09:44:35;;;;;;;;;;;359.30;2329.60;;;;;;5040880;28;19912;-80
2023/02/22 09:47:01;;;;;;;;;;;384.00;2329.60;;;;;;5046148;28;20425;-80
2023/02/22 09:49:31;;;;;;;;;;;384.00;2329.60;;;;;;5033583;28;19959;-81
2023/02/22 09:51:59;;;;;;;;;;;384.20;2278.40;;;;;;5032414;28;20354;-83
2023/02/22 09:54:39;;;;;;;;;;;384.40;2201.60;;;;;;5020827;28;19916;-85
2023/02/22 09:57:07;;;;;;;;;;;384.70;2124.80;;;;;;5029488;28;19905;-86
2023/02/22 09:59:36;;;;;;;;;;;384.80;2150.40;;;;;;5030486;28;19909;-93
2023/02/22 10:02:08;;;;;;;;;;;384.90;2048.00;;;;;;5026562;28;19905;-90
2023/02/22 10:04:46;;;;;;;;;;;409.60;2099.20;;;;;;5032120;28;19915;-83
2023/02/22 10:07:17;;;;;;;;;;;409.80;2099.20;;;;;;5046945;28;20041;-83
2023/02/22 10:09:44;;;;;;;;;;;410.00;2022.40;;;;;;5039966;28;19912;-83
2023/02/22 10:12:19;;;;;;;;;;;410.20;2048.00;;;;;;5039798;28;19909;-81
2023/02/22 10:14:50;;;;;;;;;;;410.30;1971.20;;;;;;5059235;28;19940;-83
2023/02/22 10:17:16;;;;;;;;;;;410.50;1920.00;;;;;;5041828;28;19912;-83
2023/02/22 10:19:47;;;;;;;;;;;435.20;1894.40;;;;;;5036703;28;19905;-82
2023/02/22 10:22:42;;;;;;;;;;;435.30;1920.00;;;;;;5036760;28;20361;-82
2023/02/22 10:25:11;;;;;;;;;;;435.50;1868.80;;;;;;5010737;28;19905;-83
2023/02/22 10:27:43;;;;;;;;;;;435.50;1868.80;;;;;;5032325;28;19905;-84
2023/02/22 10:30:19;;;;;;;;;;;435.60;1843.20;;;;;;5059719;28;19974;-82
2023/02/22 10:32:48;;;;;;;;;;;435.90;1817.60;;;;;;5062876;28;19910;-83
2023/02/22 10:35:24;;;;;;;;;;;436.10;1792.00;;;;;;5035629;28;19939;-84
2023/02/22 10:37:53;;;;;;;;;;;460.90;1766.40;;;;;;5025218;28;19912;-82
2023/02/22 10:40:21;;;;;;;;;;;460.80;1792.00;;;;;;5050092;28;19912;-83
2023/02/22 10:42:48;;;;;;;;;;;461.10;1766.40;;;;;;5037420;28;19908;-83
2023/02/22 10:45:23;;;;;;;;;;;461.10;1740.80;;;;;;5040277;28;20325;-82
2023/02/22 10:47:49;;;;;;;;;;;461.30;1715.20;;;;;;5031164;28;19905;-83
2023/02/22 10:50:15;;;;;;;;;;;461.50;1689.60;;;;;;5031542;28;19940;-83
2023/02/22 10:52:41;;;;;;;;;;;461.50;1689.60;;;;;;5035078;28;19908;-84
2023/02/22 10:55:12;;;;;;;;;;;461.40;1715.20;;;;;;5036673;28;19935;-82
2023/02/22 10:57:37;;;;;;;;;;;461.70;1689.60;;;;;;5028388;28;19905;-83
2023/02/22 11:00:28;;;;;;;;;;;486.40;1664.00;;;;;;5050557;28;19931;-83
2023/02/22 11:02:55;;;;;;;;;;;486.60;1638.40;;;;;;5043881;28;19909;-82
2023/02/22 11:05:26;;;;;;;;;;;486.70;1638.40;;;;;;5030559;28;20003;-83
2023/02/22 11:08:12;;;;;;;;;;;486.90;1587.20;;;;;;5031336;28;19905;-84
2023/02/22 11:10:38;;;;;;;;;;;486.90;1587.20;;;;;;5026810;28;19913;-83
2023/02/22 11:13:15;;;;;;;;;;;487.00;1587.20;;;;;;5045869;28;20007;-84
2023/02/22 11:15:41;;;;;;;;;;;486.80;1587.20;;;;;;5049774;28;19913;-84
2023/02/22 11:18:20;;;;;;;;;;;487.00;1587.20;;;;;;5039316;28;19912;-83
2023/02/22 11:20:46;;;;;;;;;;;487.30;1561.60;;;;;;5042829;28;20284;-84
2023/02/22 11:23:12;;;;;;;;;;;512.00;1536.00;;;;;;5052668;28;19911;-83
2023/02/22 11:25:39;;;;;;;;;;;487.30;1561.60;;;;;;5040620;28;19905;-84
2023/02/22 11:28:13;;;;;;;;;;;512.10;1536.00;;;;;;5039941;28;19908;-82
2023/02/22 11:30:42;;;;;;;;;;;512.20;1510.40;;;;;;5025335;28;19905;-82
2023/02/22 11:33:22;;;;;;;;;;;512.30;1510.40;;;;;;5030058;28;19905;-82
2023/02/22 11:35:52;;;;;;;;;;;512.40;1484.80;;;;;;5026385;28;20325;-77
2023/02/22 11:38:19;;;;;;;;;;;512.40;1484.80;;;;;;5043966;28;20342;-81
2023/02/22 11:40:45;;;;;;;;;;;512.60;1459.20;;;;;;5025221;28;19928;-79
2023/02/22 11:43:16;;;;;;;;;;;512.70;1459.20;;;;;;5051288;28;19905;-82
2023/02/22 11:45:55;;;;;;;;;;;512.90;1433.60;;;;;;5036549;28;19904;-91
2023/02/22 11:48:22;;;;;;;;;;;538.00;1459.20;;;;;;5043097;28;20585;-83
2023/02/22 11:50:50;;;;;;;;;;;537.80;1433.60;;;;;;5049301;28;19905;-85
2023/02/22 11:53:24;;;;;;;;;;;537.80;1433.60;;;;;;5047856;28;19904;-85
2023/02/22 11:55:49;;;;;;;;;;;537.70;1433.60;;;;;;5043629;28;19913;-81
2023/02/22 11:58:35;;;;;;;;;;;537.80;1459.20;;;;;;5048493;28;19988;-81
2023/02/22 12:01:07;;;;;;;;;;;537.80;1408.00;;;;;;5030594;28;19963;-81
2023/02/22 12:03:32;;;;;;;;;;;537.80;1408.00;;;;;;5047197;28;19905;-82
2023/02/22 12:06:05;;;;;;;;;;;537.80;1433.60;;;;;;5044128;28;19912;-81
2023/02/22 12:08:37;;;;;;;;;;;537.90;1408.00;;;;;;5058841;28;19951;-80
2023/02/22 12:11:21;;;;;;;;;;;538.10;1408.00;;;;;;5034826;28;19913;-81
2023/02/22 12:14:06;;;;;;;;;;;538.10;1408.00;;;;;;5046204;28;19904;-84
2023/02/22 12:16:38;;;;;;;;;;;538.00;1408.00;;;;;;5054659;28;19912;-81
2023/02/22 12:19:09;;;;;;;;;;;538.00;1408.00;;;;;;5056725;28;20488;-81
2023/02/22 12:21:39;;;;;;;;;;;538.00;1433.60;;;;;;5054516;28;19905;-81
2023/02/22 12:24:15;;;;;;;;;;;538.00;1433.60;;;;;;5048614;28;19905;-81
2023/02/22 12:26:40;;;;;;;;;;;537.90;1459.20;;;;;;5034788;28;20010;-80
2023/02/22 12:29:24;;;;;;;;;;;537.60;1459.20;;;;;;5052006;28;20373;-81
2023/02/22 12:31:52;;;;;;;;;;;537.80;1433.60;;;;;;5057958;28;19912;-80
2023/02/22 12:34:29;;;;;;;;;;;538.00;1433.60;;;;;;5050217;28;19931;-80
2023/02/22 12:37:13;;;;;;;;;;;537.90;1433.60;;;;;;5038999;28;19905;-80
2023/02/22 12:39:44;;;;;;;;;;;537.90;1433.60;;;;;;5040620;28;19919;-81
2023/02/22 12:42:16;;;;;;;;;;;537.90;1408.00;;;;;;5041823;28;19951;-80
2023/02/22 12:44:43;;;;;;;;;;;537.90;1433.60;;;;;;5043009;28;19911;-80
2023/02/22 12:47:14;;;;;;;;;;;537.80;1433.60;;;;;;5044246;28;19908;-80
2023/02/22 12:49:42;;;;;;;;;;;537.80;1459.20;;;;;;5047432;28;19904;-80
2023/02/22 12:52:17;;;;;;;;;;;537.70;1459.20;;;;;;5050260;28;19905;-80
2023/02/22 12:54:46;;;;;;;;;;;537.80;1459.20;;;;;;5028921;28;19912;-80
2023/02/22 12:57:27;;;;;;;;;;;537.70;1433.60;;;;;;5044639;28;19912;-80
2023/02/22 12:59:58;;;;;;;;;;;537.60;1433.60;;;;;;5036485;28;19911;-82
2023/02/22 13:02:30;;;;;;;;;;;512.90;1433.60;;;;;;5032765;28;19904;-81
2023/02/22 13:04:55;;;;;;;;;;;512.90;1433.60;;;;;;5040425;28;19927;-81
2023/02/22 13:07:24;;;;;;;;;;;512.90;1433.60;;;;;;5038848;28;20361;-80
2023/02/22 13:09:58;;;;;;;;;;;512.70;1433.60;;;;;;5038409;28;19912;-80
2023/02/22 13:12:33;;;;;;;;;;;512.80;1382.40;;;;;;5028565;28;19916;-80
2023/02/22 13:15:03;;;;;;;;;;;512.70;1433.60;;;;;;5054041;28;20388;-79
2023/02/22 13:17:29;;;;;;;;;;;512.80;1408.00;;;;;;5045954;28;20342;-81
2023/02/22 13:19:57;;;;;;;;;;;512.40;1433.60;;;;;;5031822;28;19912;-80
2023/02/22 13:22:26;;;;;;;;;;;512.00;1484.80;;;;;;5037153;28;19909;-80
2023/02/22 13:24:58;;;;;;;;;;;487.10;1510.40;;;;;;5060861;28;19912;-81
2023/02/22 13:27:31;;;;;;;;;;;487.20;1484.80;;;;;;5028901;28;19909;-82
2023/02/22 13:29:57;;;;;;;;;;;512.00;1484.80;;;;;;5038412;28;19927;-81
2023/02/22 13:32:23;;;;;;;;;;;512.00;1459.20;;;;;;5060897;28;19904;-80
2023/02/22 13:34:58;;;;;;;;;;;512.10;1433.60;;;;;;5054310;28;19917;-80
2023/02/22 13:37:39;;;;;;;;;;;512.10;1433.60;;;;;;5038337;28;19914;-80
2023/02/22 13:40:25;;;;;;;;;;;512.10;1433.60;;;;;;5027317;28;20282;-80
2023/02/22 13:42:50;;;;;;;;;;;512.00;1433.60;;;;;;5036060;28;19923;-79
2023/02/22 13:45:31;;;;;;;;;;;487.20;1433.60;;;;;;5042319;28;19905;-79
2023/02/22 13:47:56;;;;;;;;;;;487.20;1433.60;;;;;;5060825;28;19948;-79